sensor_id;sensor_type;location;lat;lon;timestamp;pressure;altitude;pressure_sealevel;temperature;humidity
21100;BME280;10708;50.824;4.408;2023-01-28T00:05:00;101851.59;;;3.93;100.00
21100;BME280;10708;50.824;4.408;2023-01-28T00:10:03;101855.13;;;3.99;100.00
21100;BME280;10708;50.824;4.408;2023-01-28T00:15:08;101850.78;;;3.97;100.00
21100;BME280;10708;50.824;4.408;2023-01-28T00:20:11;101849.94;;;4.01;100.00
21100;BME280;10708;50.824;4.408;2023-01-28T00:25:14;101842.09;;;3.99;100.00
21100;BME280;10708;50.824;4.408;2023-01-28T00:30:18;101835.06;;;3.89;100.00
21100;BME280;10708;50.824;4.408;2023-01-28T00:35:21;101853.31;;;3.92;100.00
21100;BME280;10708;50.824;4.408;2023-01-28T00:40:23;101843.63;;;3.78;100.00
21100;BME280;10708;50.824;4.408;2023-01-28T00:45:27;101846.34;;;3.90;100.00
21100;BME280;10708;50.824;4.408;2023-01-28T00:50:30;101854.94;;;3.81;100.00
21100;BME280;10708;50.824;4.408;2023-01-28T00:55:32;101857.59;;;3.84;100.00
21100;BME280;10708;50.824;4.408;2023-01-28T01:00:36;101871.47;;;3.83;100.00
21100;BME280;10708;50.824;4.408;2023-01-28T01:05:38;101874.91;;;3.82;100.00
21100;BME280;10708;50.824;4.408;2023-01-28T01:10:40;101862.78;;;3.83;100.00
21100;BME280;10708;50.824;4.408;2023-01-28T01:15:44;101865.31;;;3.80;100.00
21100;BME280;10708;50.824;4.408;2023-01-28T01:20:47;101864.44;;;3.76;100.00
21100;BME280;10708;50.824;4.408;2023-01-28T01:25:49;101872.22;;;3.75;100.00
21100;BME280;10708;50.824;4.408;2023-01-28T01:30:59;101886.16;;;3.77;100.00
21100;BME280;10708;50.824;4.408;2023-01-28T01:36:02;101878.31;;;3.75;100.00
21100;BME280;10708;50.824;4.408;2023-01-28T01:41:06;101886.13;;;3.75;100.00
21100;BME280;10708;50.824;4.408;2023-01-28T01:46:11;101887.06;;;3.79;100.00
21100;BME280;10708;50.824;4.408;2023-01-28T01:51:16;101898.25;;;3.73;100.00
21100;BME280;10708;50.824;4.408;2023-01-28T01:56:23;101885.31;;;3.81;100.00
21100;BME280;10708;50.824;4.408;2023-01-28T02:01:30;101878.41;;;3.83;100.00
21100;BME280;10708;50.824;4.408;2023-01-28T02:06:33;101884.41;;;3.76;100.00
21100;BME280;10708;50.824;4.408;2023-01-28T02:11:37;101876.50;;;3.71;100.00
21100;BME280;10708;50.824;4.408;2023-01-28T02:16:41;101883.47;;;3.69;100.00
21100;BME280;10708;50.824;4.408;2023-01-28T02:22:01;101885.22;;;3.73;100.00
21100;BME280;10708;50.824;4.408;2023-01-28T02:27:21;101875.63;;;3.70;100.00
21100;BME280;10708;50.824;4.408;2023-01-28T02:32:30;101879.97;;;3.70;100.00
21100;BME280;10708;50.824;4.408;2023-01-28T02:37:37;101882.53;;;3.65;100.00
21100;BME280;10708;50.824;4.408;2023-01-28T02:42:41;101879.91;;;3.64;100.00
21100;BME280;10708;50.824;4.408;2023-01-28T02:47:45;101878.06;;;3.57;100.00
21100;BME280;10708;50.824;4.408;2023-01-28T02:53:16;101878.03;;;3.54;100.00
21100;BME280;10708;50.824;4.408;2023-01-28T02:58:43;101883.19;;;3.49;100.00
21100;BME280;10708;50.824;4.408;2023-01-28T03:03:57;101884.91;;;3.49;100.00
21100;BME280;10708;50.824;4.408;2023-01-28T03:09:02;101879.00;;;3.62;100.00
21100;BME280;10708;50.824;4.408;2023-01-28T03:14:25;101885.00;;;3.55;100.00
21100;BME280;10708;50.824;4.408;2023-01-28T03:19:47;101895.25;;;3.44;100.00
21100;BME280;10708;50.824;4.408;2023-01-28T03:25:07;101906.63;;;3.49;100.00
21100;BME280;10708;50.824;4.408;2023-01-28T03:30:33;101916.94;;;3.43;100.00
21100;BME280;10708;50.824;4.408;2023-01-28T03:35:56;101907.44;;;3.47;100.00
21100;BME280;10708;50.824;4.408;2023-01-28T03:41:20;101920.50;;;3.48;100.00
21100;BME280;10708;50.824;4.408;2023-01-28T03:46:23;101922.09;;;3.40;100.00
21100;BME280;10708;50.824;4.408;2023-01-28T03:51:27;101934.41;;;3.49;100.00
21100;BME280;10708;50.824;4.408;2023-01-28T03:56:29;101929.00;;;3.37;100.00
21100;BME280;10708;50.824;4.408;2023-01-28T04:01:37;101923.91;;;3.44;100.00
21100;BME280;10708;50.824;4.408;2023-01-28T04:06:41;101927.31;;;3.42;100.00
21100;BME280;10708;50.824;4.408;2023-01-28T04:11:43;101931.63;;;3.38;100.00
21100;BME280;10708;50.824;4.408;2023-01-28T04:16:46;101930.63;;;3.30;100.00
21100;BME280;10708;50.824;4.408;2023-01-28T04:21:50;101932.25;;;3.23;100.00
21100;BME280;10708;50.824;4.408;2023-01-28T04:26:53;101937.41;;;3.20;100.00
21100;BME280;10708;50.824;4.408;2023-01-28T04:31:56;101941.75;;;3.20;100.00
21100;BME280;10708;50.824;4.408;2023-01-28T04:36:59;101955.63;;;3.19;100.00
21100;BME280;10708;50.824;4.408;2023-01-28T04:42:02;101946.00;;;3.15;100.00
21100;BME280;10708;50.824;4.408;2023-01-28T04:47:04;101948.53;;;3.09;100.00
21100;BME280;10708;50.824;4.408;2023-01-28T04:52:08;101956.38;;;3.12;100.00
21100;BME280;10708;50.824;4.408;2023-01-28T04:57:10;101945.03;;;3.10;100.00
21100;BME280;10708;50.824;4.408;2023-01-28T05:02:13;101939.03;;;3.14;100.00
21100;BME280;10708;50.824;4.408;2023-01-28T05:07:16;101950.28;;;3.11;100.00
21100;BME280;10708;50.824;4.408;2023-01-28T05:12:19;101951.13;;;3.10;100.00
21100;BME280;10708;50.824;4.408;2023-01-28T05:17:21;101951.09;;;3.07;100.00
21100;BME280;10708;50.824;4.408;2023-01-28T05:22:25;101945.88;;;3.06;100.00
21100;BME280;10708;50.824;4.408;2023-01-28T05:27:28;101953.59;;;3.03;100.00
21100;BME280;10708;50.824;4.408;2023-01-28T05:32:30;101951.13;;;3.09;100.00
21100;BME280;10708;50.824;4.408;2023-01-28T05:37:33;101941.59;;;3.09;100.00
21100;BME280;10708;50.824;4.408;2023-01-28T05:42:36;101949.22;;;3.00;100.00
21100;BME280;10708;50.824;4.408;2023-01-28T05:47:38;101957.00;;;2.97;100.00
21100;BME280;10708;50.824;4.408;2023-01-28T05:52:42;101959.59;;;2.97;100.00
21100;BME280;10708;50.824;4.408;2023-01-28T05:57:45;101947.47;;;2.97;100.00
21100;BME280;10708;50.824;4.408;2023-01-28T06:02:49;101940.44;;;2.93;100.00
21100;BME280;10708;50.824;4.408;2023-01-28T06:07:53;101958.63;;;2.92;100.00
21100;BME280;10708;50.824;4.408;2023-01-28T06:12:55;101966.41;;;2.89;100.00
21100;BME280;10708;50.824;4.408;2023-01-28T06:17:58;101972.31;;;2.82;100.00
21100;BME280;10708;50.824;4.408;2023-01-28T06:23:01;101973.16;;;2.79;100.00
21100;BME280;10708;50.824;4.408;2023-01-28T06:28:04;101972.28;;;2.79;100.00
21100;BME280;10708;50.824;4.408;2023-01-28T06:33:06;101980.06;;;2.77;100.00
21100;BME280;10708;50.824;4.408;2023-01-28T06:38:10;101991.34;;;2.78;100.00
21100;BME280;10708;50.824;4.408;2023-01-28T06:43:12;101992.13;;;2.74;100.00
21100;BME280;10708;50.824;4.408;2023-01-28T06:48:15;101985.03;;;2.65;100.00
21100;BME280;10708;50.824;4.408;2023-01-28T06:53:19;101980.03;;;2.76;100.00
21100;BME280;10708;50.824;4.408;2023-01-28T06:58:22;101983.44;;;2.73;100.00
21100;BME280;10708;50.824;4.408;2023-01-28T07:03:24;101986.88;;;2.72;100.00
21100;BME280;10708;50.824;4.408;2023-01-28T07:08:28;101987.59;;;2.64;100.00
21100;BME280;10708;50.824;4.408;2023-01-28T07:13:30;101993.56;;;2.58;100.00
21100;BME280;10708;50.824;4.408;2023-01-28T07:18:33;101988.28;;;2.55;100.00
21100;BME280;10708;50.824;4.408;2023-01-28T07:23:37;102000.47;;;2.56;100.00
21100;BME280;10708;50.824;4.408;2023-01-28T07:28:39;101989.06;;;2.51;100.00
21100;BME280;10708;50.824;4.408;2023-01-28T07:33:42;101991.72;;;2.52;100.00
21100;BME280;10708;50.824;4.408;2023-01-28T07:38:46;102002.06;;;2.49;100.00
21100;BME280;10708;50.824;4.408;2023-01-28T07:43:49;101992.50;;;2.48;100.00
21100;BME280;10708;50.824;4.408;2023-01-28T07:48:52;102001.91;;;2.42;100.00
21100;BME280;10708;50.824;4.408;2023-01-28T07:53:56;102011.53;;;2.46;100.00
21100;BME280;10708;50.824;4.408;2023-01-28T07:59:00;102022.84;;;2.48;100.00
21100;BME280;10708;50.824;4.408;2023-01-28T08:04:03;102011.59;;;2.49;100.00
21100;BME280;10708;50.824;4.408;2023-01-28T08:09:07;102024.50;;;2.44;100.00
21100;BME280;10708;50.824;4.408;2023-01-28T08:14:11;102026.31;;;2.50;100.00
21100;BME280;10708;50.824;4.408;2023-01-28T08:19:13;102035.00;;;2.49;100.00
21100;BME280;10708;50.824;4.408;2023-01-28T08:24:19;102050.31;;;2.35;100.00
21100;BME280;10708;50.824;4.408;2023-01-28T08:29:21;102045.94;;;2.34;100.00
21100;BME280;10708;50.824;4.408;2023-01-28T08:34:24;102038.06;;;2.31;100.00
21100;BME280;10708;50.824;4.408;2023-01-28T08:39:31;102052.78;;;2.31;100.00
21100;BME280;10708;50.824;4.408;2023-01-28T08:44:33;102067.78;;;2.42;100.00
21100;BME280;10708;50.824;4.408;2023-01-28T08:49:36;102067.94;;;2.50;100.00
21100;BME280;10708;50.824;4.408;2023-01-28T08:54:40;102060.28;;;2.56;100.00
21100;BME280;10708;50.824;4.408;2023-01-28T08:59:42;102086.13;;;2.50;100.00
21100;BME280;10708;50.824;4.408;2023-01-28T09:04:46;102088.09;;;2.58;100.00
21100;BME280;10708;50.824;4.408;2023-01-28T09:09:50;102090.69;;;2.60;100.00
21100;BME280;10708;50.824;4.408;2023-01-28T09:14:52;102092.22;;;2.50;100.00
21100;BME280;10708;50.824;4.408;2023-01-28T09:19:55;102083.56;;;2.51;100.00
21100;BME280;10708;50.824;4.408;2023-01-28T09:24:58;102085.97;;;2.42;100.00
21100;BME280;10708;50.824;4.408;2023-01-28T09:30:01;102098.75;;;2.32;100.00
21100;BME280;10708;50.824;4.408;2023-01-28T09:35:04;102098.06;;;2.39;100.00
21100;BME280;10708;50.824;4.408;2023-01-28T09:40:11;102105.88;;;2.40;100.00
21100;BME280;10708;50.824;4.408;2023-01-28T09:45:19;102109.38;;;2.42;100.00
21100;BME280;10708;50.824;4.408;2023-01-28T09:50:30;102111.91;;;2.38;100.00
21100;BME280;10708;50.824;4.408;2023-01-28T09:55:38;102100.66;;;2.40;100.00
21100;BME280;10708;50.824;4.408;2023-01-28T10:00:53;102110.41;;;2.49;100.00
21100;BME280;10708;50.824;4.408;2023-01-28T10:06:08;102114.78;;;2.51;100.00
21100;BME280;10708;50.824;4.408;2023-01-28T10:11:21;102120.97;;;2.56;100.00
21100;BME280;10708;50.824;4.408;2023-01-28T10:16:36;102125.16;;;2.48;100.00
21100;BME280;10708;50.824;4.408;2023-01-28T10:21:45;102122.56;;;2.50;100.00
21100;BME280;10708;50.824;4.408;2023-01-28T10:26:51;102125.00;;;2.42;100.00
21100;BME280;10708;50.824;4.408;2023-01-28T10:31:56;102118.22;;;2.49;100.00
21100;BME280;10708;50.824;4.408;2023-01-28T10:37:01;102131.22;;;2.50;100.00
21100;BME280;10708;50.824;4.408;2023-01-28T10:42:15;102130.53;;;2.57;100.00
21100;BME280;10708;50.824;4.408;2023-01-28T10:47:27;102139.47;;;2.69;100.00
21100;BME280;10708;50.824;4.408;2023-01-28T10:52:31;102121.97;;;2.63;100.00
21100;BME280;10708;50.824;4.408;2023-01-28T10:57:40;102134.91;;;2.58;100.00
21100;BME280;10708;50.824;4.408;2023-01-28T11:02:43;102128.00;;;2.59;100.00
21100;BME280;10708;50.824;4.408;2023-01-28T11:07:49;102126.13;;;2.53;100.00
21100;BME280;10708;50.824;4.408;2023-01-28T11:12:56;102123.34;;;2.46;100.00
21100;BME280;10708;50.824;4.408;2023-01-28T11:18:01;102131.34;;;2.55;100.00
21100;BME280;10708;50.824;4.408;2023-01-28T11:23:06;102117.66;;;2.64;100.00
21100;BME280;10708;50.824;4.408;2023-01-28T11:28:17;102118.50;;;2.63;100.00
21100;BME280;10708;50.824;4.408;2023-01-28T11:33:21;102109.13;;;2.71;100.00
21100;BME280;10708;50.824;4.408;2023-01-28T11:38:25;102123.72;;;2.63;100.00
21100;BME280;10708;50.824;4.408;2023-01-28T11:43:30;102120.34;;;2.67;100.00
21100;BME280;10708;50.824;4.408;2023-01-28T11:48:40;102128.00;;;2.60;100.00
21100;BME280;10708;50.824;4.408;2023-01-28T11:53:58;102127.75;;;2.50;100.00
21100;BME280;10708;50.824;4.408;2023-01-28T11:59:24;102106.16;;;2.52;100.00
21100;BME280;10708;50.824;4.408;2023-01-28T12:04:42;102087.84;;;2.48;100.00
21100;BME280;10708;50.824;4.408;2023-01-28T12:09:56;102086.97;;;2.47;100.00
21100;BME280;10708;50.824;4.408;2023-01-28T12:15:34;102069.66;;;2.48;100.00
21100;BME280;10708;50.824;4.408;2023-01-28T12:20:49;102057.78;;;2.62;100.00
21100;BME280;10708;50.824;4.408;2023-01-28T12:26:03;102052.72;;;2.68;100.00
21100;BME280;10708;50.824;4.408;2023-01-28T12:31:24;102053.56;;;2.67;100.00
21100;BME280;10708;50.824;4.408;2023-01-28T12:36:42;102033.00;;;2.79;100.00
21100;BME280;10708;50.824;4.408;2023-01-28T12:41:53;102011.19;;;2.73;100.00
21100;BME280;10708;50.824;4.408;2023-01-28T12:47:04;101982.75;;;2.83;100.00
21100;BME280;10708;50.824;4.408;2023-01-28T12:52:11;101969.47;;;2.68;100.00
21100;BME280;10708;50.824;4.408;2023-01-28T12:57:22;101986.50;;;2.52;100.00
21100;BME280;10708;50.824;4.408;2023-01-28T13:02:30;102013.78;;;2.73;100.00
21100;BME280;10708;50.824;4.408;2023-01-28T13:07:38;101996.59;;;2.79;100.00
21100;BME280;10708;50.824;4.408;2023-01-28T13:12:42;101994.00;;;2.82;100.00
21100;BME280;10708;50.824;4.408;2023-01-28T13:17:57;102020.84;;;2.80;100.00
21100;BME280;10708;50.824;4.408;2023-01-28T13:23:03;102026.94;;;2.79;100.00
21100;BME280;10708;50.824;4.408;2023-01-28T13:28:25;102031.38;;;2.86;100.00
21100;BME280;10708;50.824;4.408;2023-01-28T13:33:31;102039.06;;;2.78;100.00
21100;BME280;10708;50.824;4.408;2023-01-28T13:38:35;102027.75;;;2.76;100.00
21100;BME280;10708;50.824;4.408;2023-01-28T13:43:43;102036.47;;;2.80;100.00
21100;BME280;10708;50.824;4.408;2023-01-28T13:48:49;102037.53;;;2.89;100.00
21100;BME280;10708;50.824;4.408;2023-01-28T13:53:58;102040.16;;;2.89;100.00
21100;BME280;10708;50.824;4.408;2023-01-28T13:59:16;102040.91;;;2.85;100.00
21100;BME280;10708;50.824;4.408;2023-01-28T14:04:34;102029.34;;;3.16;100.00
21100;BME280;10708;50.824;4.408;2023-01-28T14:15:32;102032.31;;;3.36;100.00
21100;BME280;10708;50.824;4.408;2023-01-28T14:20:43;102018.53;;;3.43;100.00
21100;BME280;10708;50.824;4.408;2023-01-28T14:25:56;102013.38;;;3.46;100.00
21100;BME280;10708;50.824;4.408;2023-01-28T14:31:05;102008.28;;;3.54;100.00
21100;BME280;10708;50.824;4.408;2023-01-28T14:36:11;102015.28;;;3.56;100.00
21100;BME280;10708;50.824;4.408;2023-01-28T14:41:21;102002.19;;;3.53;100.00
21100;BME280;10708;50.824;4.408;2023-01-28T14:46:34;101992.50;;;3.45;100.00
21100;BME280;10708;50.824;4.408;2023-01-28T14:51:51;101991.38;;;3.30;100.00
21100;BME280;10708;50.824;4.408;2023-01-28T14:57:23;101998.53;;;3.42;100.00
21100;BME280;10708;50.824;4.408;2023-01-28T15:02:30;102017.59;;;3.38;100.00
21100;BME280;10708;50.824;4.408;2023-01-28T15:07:34;102020.75;;;3.22;100.00
21100;BME280;10708;50.824;4.408;2023-01-28T15:12:38;102013.72;;;3.16;100.00
21100;BME280;10708;50.824;4.408;2023-01-28T15:17:40;102018.78;;;3.07;100.00
21100;BME280;10708;50.824;4.408;2023-01-28T15:22:44;102015.91;;;2.93;100.00
21100;BME280;10708;50.824;4.408;2023-01-28T15:27:50;102026.44;;;2.98;100.00
21100;BME280;10708;50.824;4.408;2023-01-28T15:33:02;102032.47;;;2.97;100.00
21100;BME280;10708;50.824;4.408;2023-01-28T15:38:07;102032.44;;;2.95;100.00
21100;BME280;10708;50.824;4.408;2023-01-28T15:43:21;102028.09;;;2.94;100.00
21100;BME280;10708;50.824;4.408;2023-01-28T15:48:25;102027.97;;;2.88;100.00
21100;BME280;10708;50.824;4.408;2023-01-28T15:53:33;102011.44;;;2.86;100.00
21100;BME280;10708;50.824;4.408;2023-01-28T15:58:36;102010.44;;;2.80;100.00
21100;BME280;10708;50.824;4.408;2023-01-28T16:03:42;102021.38;;;2.62;100.00
21100;BME280;10708;50.824;4.408;2023-01-28T16:08:51;102033.44;;;2.57;100.00
21100;BME280;10708;50.824;4.408;2023-01-28T16:13:55;102053.25;;;2.52;100.00
21100;BME280;10708;50.824;4.408;2023-01-28T16:18:58;102055.66;;;2.43;100.00
21100;BME280;10708;50.824;4.408;2023-01-28T16:24:05;102075.47;;;2.36;100.00
21100;BME280;10708;50.824;4.408;2023-01-28T16:29:12;102082.28;;;2.31;100.00
21100;BME280;10708;50.824;4.408;2023-01-28T16:34:16;102097.03;;;2.32;100.00
21100;BME280;10708;50.824;4.408;2023-01-28T16:39:20;102105.09;;;2.44;100.00
21100;BME280;10708;50.824;4.408;2023-01-28T16:44:23;102113.91;;;2.51;100.00
21100;BME280;10708;50.824;4.408;2023-01-28T16:49:25;102109.84;;;2.64;100.00
21100;BME280;10708;50.824;4.408;2023-01-28T16:54:29;102108.25;;;2.70;100.00
21100;BME280;10708;50.824;4.408;2023-01-28T16:59:32;102090.06;;;2.72;100.00
21100;BME280;10708;50.824;4.408;2023-01-28T17:04:34;102076.16;;;2.70;100.00
21100;BME280;10708;50.824;4.408;2023-01-28T17:09:38;102073.50;;;2.67;100.00
21100;BME280;10708;50.824;4.408;2023-01-28T17:14:41;102086.38;;;2.60;100.00
21100;BME280;10708;50.824;4.408;2023-01-28T17:19:43;102088.88;;;2.56;100.00
21100;BME280;10708;50.824;4.408;2023-01-28T17:24:47;102079.09;;;2.44;100.00
21100;BME280;10708;50.824;4.408;2023-01-28T17:29:51;102089.25;;;2.34;100.00
21100;BME280;10708;50.824;4.408;2023-01-28T17:34:53;102100.34;;;2.25;100.00
21100;BME280;10708;50.824;4.408;2023-01-28T17:39:57;102098.38;;;2.15;100.00
21100;BME280;10708;50.824;4.408;2023-01-28T17:44:59;102090.41;;;2.07;100.00
21100;BME280;10708;50.824;4.408;2023-01-28T17:50:03;102097.16;;;1.99;100.00
21100;BME280;10708;50.824;4.408;2023-01-28T17:55:08;102097.00;;;1.93;100.00
21100;BME280;10708;50.824;4.408;2023-01-28T18:00:13;102085.63;;;1.88;100.00
21100;BME280;10708;50.824;4.408;2023-01-28T18:05:15;102106.34;;;1.85;100.00
21100;BME280;10708;50.824;4.408;2023-01-28T18:10:19;102122.72;;;1.82;100.00
21100;BME280;10708;50.824;4.408;2023-01-28T18:15:22;102126.97;;;1.79;100.00
21100;BME280;10708;50.824;4.408;2023-01-28T18:20:25;102119.06;;;1.74;100.00
21100;BME280;10708;50.824;4.408;2023-01-28T18:25:28;102106.75;;;1.67;100.00
21100;BME280;10708;50.824;4.408;2023-01-28T18:30:31;102111.88;;;1.64;100.00
21100;BME280;10708;50.824;4.408;2023-01-28T18:35:35;102112.47;;;1.54;100.00
21100;BME280;10708;50.824;4.408;2023-01-28T18:40:43;102123.56;;;1.47;100.00
21100;BME280;10708;50.824;4.408;2023-01-28T18:45:46;102137.19;;;1.38;100.00
21100;BME280;10708;50.824;4.408;2023-01-28T18:50:50;102139.56;;;1.31;100.00
21100;BME280;10708;50.824;4.408;2023-01-28T18:56:01;102162.81;;;1.26;100.00
21100;BME280;10708;50.824;4.408;2023-01-28T19:01:06;102170.50;;;1.23;100.00
21100;BME280;10708;50.824;4.408;2023-01-28T19:06:09;102166.03;;;1.18;100.00
21100;BME280;10708;50.824;4.408;2023-01-28T19:11:15;102163.13;;;1.07;100.00
21100;BME280;10708;50.824;4.408;2023-01-28T19:16:18;102171.47;;;0.97;100.00
21100;BME280;10708;50.824;4.408;2023-01-28T19:21:25;102172.97;;;0.89;100.00
21100;BME280;10708;50.824;4.408;2023-01-28T19:26:30;102162.34;;;0.80;100.00
21100;BME280;10708;50.824;4.408;2023-01-28T19:31:32;102173.41;;;0.74;100.00
21100;BME280;10708;50.824;4.408;2023-01-28T19:36:35;102164.50;;;0.66;100.00
21100;BME280;10708;50.824;4.408;2023-01-28T19:41:39;102165.25;;;0.62;100.00
21100;BME280;10708;50.824;4.408;2023-01-28T19:46:42;102154.00;;;0.61;100.00
21100;BME280;10708;50.824;4.408;2023-01-28T19:51:44;102146.97;;;0.57;100.00
21100;BME280;10708;50.824;4.408;2023-01-28T19:56:48;102152.84;;;0.52;100.00
21100;BME280;10708;50.824;4.408;2023-01-28T20:01:50;102151.84;;;0.47;100.00
21100;BME280;10708;50.824;4.408;2023-01-28T20:06:55;102144.88;;;0.46;100.00
21100;BME280;10708;50.824;4.408;2023-01-28T20:11:59;102155.09;;;0.41;100.00
21100;BME280;10708;50.824;4.408;2023-01-28T20:17:01;102161.00;;;0.35;100.00
21100;BME280;10708;50.824;4.408;2023-01-28T20:22:04;102156.59;;;0.33;100.00
21100;BME280;10708;50.824;4.408;2023-01-28T20:27:07;102160.00;;;0.32;100.00
21100;BME280;10708;50.824;4.408;2023-01-28T20:32:10;102155.63;;;0.29;100.00
21100;BME280;10708;50.824;4.408;2023-01-28T20:37:12;102147.84;;;0.29;100.00
21100;BME280;10708;50.824;4.408;2023-01-28T20:42:16;102142.63;;;0.28;100.00
21100;BME280;10708;50.824;4.408;2023-01-28T20:47:19;102140.84;;;0.27;100.00
21100;BME280;10708;50.824;4.408;2023-01-28T20:52:21;102126.97;;;0.25;100.00
21100;BME280;10708;50.824;4.408;2023-01-28T20:57:25;102128.66;;;0.24;100.00
21100;BME280;10708;50.824;4.408;2023-01-28T21:02:27;102118.19;;;0.20;100.00
21100;BME280;10708;50.824;4.408;2023-01-28T21:07:31;102122.44;;;0.18;100.00
21100;BME280;10708;50.824;4.408;2023-01-28T21:12:35;102122.28;;;0.13;100.00
21100;BME280;10708;50.824;4.408;2023-01-28T21:17:37;102123.84;;;0.08;100.00
21100;BME280;10708;50.824;4.408;2023-01-28T21:22:40;102117.56;;;0.02;100.00
21100;BME280;10708;50.824;4.408;2023-01-28T21:27:44;102120.91;;;-0.03;100.00
21100;BME280;10708;50.824;4.408;2023-01-28T21:32:46;102130.25;;;-0.08;100.00
21100;BME280;10708;50.824;4.408;2023-01-28T21:37:49;102137.06;;;-0.11;100.00
21100;BME280;10708;50.824;4.408;2023-01-28T21:42:53;102130.81;;;-0.16;100.00
21100;BME280;10708;50.824;4.408;2023-01-28T21:47:56;102127.25;;;-0.20;100.00
21100;BME280;10708;50.824;4.408;2023-01-28T21:52:58;102122.94;;;-0.19;100.00
21100;BME280;10708;50.824;4.408;2023-01-28T21:58:02;102126.41;;;-0.20;100.00
21100;BME280;10708;50.824;4.408;2023-01-28T22:03:18;102125.53;;;-0.19;100.00
21100;BME280;10708;50.824;4.408;2023-01-28T22:08:20;102125.41;;;-0.24;100.00
21100;BME280;10708;50.824;4.408;2023-01-28T22:13:24;102123.59;;;-0.26;100.00
21100;BME280;10708;50.824;4.408;2023-01-28T22:18:26;102124.34;;;-0.29;100.00
21100;BME280;10708;50.824;4.408;2023-01-28T22:23:29;102120.84;;;-0.31;100.00
21100;BME280;10708;50.824;4.408;2023-01-28T22:28:35;102132.94;;;-0.31;100.00
21100;BME280;10708;50.824;4.408;2023-01-28T22:33:37;102123.16;;;-0.39;100.00
21100;BME280;10708;50.824;4.408;2023-01-28T22:38:41;102140.31;;;-0.42;100.00
21100;BME280;10708;50.824;4.408;2023-01-28T22:43:45;102145.38;;;-0.45;100.00
21100;BME280;10708;50.824;4.408;2023-01-28T22:48:48;102148.03;;;-0.44;100.00
21100;BME280;10708;50.824;4.408;2023-01-28T22:53:51;102139.50;;;-0.41;100.00
21100;BME280;10708;50.824;4.408;2023-01-28T22:58:55;102136.09;;;-0.40;100.00
21100;BME280;10708;50.824;4.408;2023-01-28T23:03:58;102118.88;;;-0.38;100.00
21100;BME280;10708;50.824;4.408;2023-01-28T23:09:00;102120.59;;;-0.39;100.00
21100;BME280;10708;50.824;4.408;2023-01-28T23:14:04;102123.97;;;-0.41;100.00
21100;BME280;10708;50.824;4.408;2023-01-28T23:19:24;102116.03;;;-0.46;100.00
21100;BME280;10708;50.824;4.408;2023-01-28T23:24:44;102111.63;;;-0.48;100.00
21100;BME280;10708;50.824;4.408;2023-01-28T23:29:48;102119.31;;;-0.51;100.00
21100;BME280;10708;50.824;4.408;2023-01-28T23:34:51;102113.13;;;-0.55;100.00
21100;BME280;10708;50.824;4.408;2023-01-28T23:39:53;102108.66;;;-0.59;100.00
21100;BME280;10708;50.824;4.408;2023-01-28T23:44:57;102102.69;;;-0.58;100.00
21100;BME280;10708;50.824;4.408;2023-01-28T23:49:59;102092.25;;;-0.59;100.00
21100;BME280;10708;50.824;4.408;2023-01-28T23:55:02;102082.53;;;-0.66;100.00
